Terminal Aerodrome Forecast
Issued by NWS

Home | Current Version | Previous Version | Graphics & Text | Print | Product List | Glossary On
Versions: 1 2 3 4 5 6 7 8 9 10 11 12 13 14 15 16 17 18 19 20 21 22 23
000
FTUS43 KMPX 270520
TAFRWF
TAF
KRWF 270520Z 2706/2806 11004KT P6SM SCT250
     FM270900 12004KT 4SM BR SCT010
     FM271000 12004KT 2SM BR BKN010
     FM271400 13008KT P6SM BKN025
     FM271600 14012G19KT P6SM FEW050 BKN250
     FM280000 15010G15KT P6SM VCTS BKN050CB=

USA.gov is the U.S. government's official web portal to all federal, state and local government web resources and services.